sensor_id;sensor_type;location;lat;lon;timestamp;pressure;altitude;pressure_sealevel;temperature;humidity
35443;BME280;21561;55.654;37.592;2023-08-08T00:00:51;98578.78;;;22.14;63.14
35443;BME280;21561;55.654;37.592;2023-08-08T00:03:18;98574.25;;;22.16;63.10
35443;BME280;21561;55.654;37.592;2023-08-08T00:05:45;98580.50;;;22.15;63.89
35443;BME280;21561;55.654;37.592;2023-08-08T00:08:11;98569.19;;;22.13;63.45
35443;BME280;21561;55.654;37.592;2023-08-08T00:10:38;98576.41;;;22.11;63.41
35443;BME280;21561;55.654;37.592;2023-08-08T00:13:05;98574.69;;;22.10;63.40
35443;BME280;21561;55.654;37.592;2023-08-08T00:15:32;98570.34;;;22.09;63.52
35443;BME280;21561;55.654;37.592;2023-08-08T00:17:59;98569.50;;;22.08;63.36
35443;BME280;21561;55.654;37.592;2023-08-08T00:20:26;98573.00;;;22.09;63.14
35443;BME280;21561;55.654;37.592;2023-08-08T00:22:52;98570.59;;;22.06;63.72
35443;BME280;21561;55.654;37.592;2023-08-08T00:25:19;98573.22;;;22.06;63.71
35443;BME280;21561;55.654;37.592;2023-08-08T00:27:45;98564.34;;;22.07;63.37
35443;BME280;21561;55.654;37.592;2023-08-08T00:30:12;98552.94;;;22.06;63.84
35443;BME280;21561;55.654;37.592;2023-08-08T00:32:39;98560.03;;;22.06;63.62
35443;BME280;21561;55.654;37.592;2023-08-08T00:35:06;98555.69;;;22.05;63.39
35443;BME280;21561;55.654;37.592;2023-08-08T00:37:33;98550.41;;;22.05;63.46
35443;BME280;21561;55.654;37.592;2023-08-08T00:40:00;98545.94;;;22.05;63.29
35443;BME280;21561;55.654;37.592;2023-08-08T00:42:27;98532.03;;;22.03;63.60
35443;BME280;21561;55.654;37.592;2023-08-08T00:44:53;98526.84;;;22.02;63.70
35443;BME280;21561;55.654;37.592;2023-08-08T00:47:20;98539.22;;;22.01;65.31
35443;BME280;21561;55.654;37.592;2023-08-08T00:49:47;98527.09;;;21.99;64.96
35443;BME280;21561;55.654;37.592;2023-08-08T00:52:15;98524.56;;;21.97;63.87
35443;BME280;21561;55.654;37.592;2023-08-08T00:54:42;98518.66;;;21.93;64.75
35443;BME280;21561;55.654;37.592;2023-08-08T00:57:08;98513.69;;;21.89;64.63
35443;BME280;21561;55.654;37.592;2023-08-08T00:59:35;98520.03;;;21.86;64.19
35443;BME280;21561;55.654;37.592;2023-08-08T01:02:02;98544.00;;;21.83;64.79
35443;BME280;21561;55.654;37.592;2023-08-08T01:04:28;98540.13;;;21.76;64.95
35443;BME280;21561;55.654;37.592;2023-08-08T01:07:05;98530.84;;;21.70;65.04
35443;BME280;21561;55.654;37.592;2023-08-08T01:09:36;98511.22;;;21.62;65.40
35443;BME280;21561;55.654;37.592;2023-08-08T01:12:03;98517.97;;;21.53;66.26
35443;BME280;21561;55.654;37.592;2023-08-08T01:14:32;98512.31;;;21.46;66.82
35443;BME280;21561;55.654;37.592;2023-08-08T01:17:00;98518.81;;;21.41;65.73
35443;BME280;21561;55.654;37.592;2023-08-08T01:19:28;98521.56;;;21.39;65.92
35443;BME280;21561;55.654;37.592;2023-08-08T01:21:57;98507.63;;;21.37;66.10
35443;BME280;21561;55.654;37.592;2023-08-08T01:24:25;98505.13;;;21.35;65.56
35443;BME280;21561;55.654;37.592;2023-08-08T01:26:55;98513.13;;;21.34;66.56
35443;BME280;21561;55.654;37.592;2023-08-08T01:29:22;98520.06;;;21.35;66.56
35443;BME280;21561;55.654;37.592;2023-08-08T01:31:48;98509.75;;;21.32;66.69
35443;BME280;21561;55.654;37.592;2023-08-08T01:34:15;98507.31;;;21.29;66.66
35443;BME280;21561;55.654;37.592;2023-08-08T01:36:46;98504.88;;;21.26;68.46
35443;BME280;21561;55.654;37.592;2023-08-08T01:39:17;98502.25;;;21.26;66.95
35443;BME280;21561;55.654;37.592;2023-08-08T01:41:44;98509.44;;;21.24;67.03
35443;BME280;21561;55.654;37.592;2023-08-08T01:44:14;98508.50;;;21.25;66.62
35443;BME280;21561;55.654;37.592;2023-08-08T01:46:41;98496.25;;;21.24;67.04
35443;BME280;21561;55.654;37.592;2023-08-08T01:49:08;98507.00;;;21.21;66.93
35443;BME280;21561;55.654;37.592;2023-08-08T01:51:35;98503.81;;;21.15;67.27
35443;BME280;21561;55.654;37.592;2023-08-08T01:54:01;98513.88;;;21.10;67.06
35443;BME280;21561;55.654;37.592;2023-08-08T01:56:29;98521.34;;;21.04;67.62
35443;BME280;21561;55.654;37.592;2023-08-08T01:58:56;98516.38;;;20.99;67.44
35443;BME280;21561;55.654;37.592;2023-08-08T02:01:22;98515.66;;;20.97;68.29
35443;BME280;21561;55.654;37.592;2023-08-08T02:03:49;98516.81;;;20.93;67.69
35443;BME280;21561;55.654;37.592;2023-08-08T02:06:16;98513.09;;;20.95;68.07
35443;BME280;21561;55.654;37.592;2023-08-08T02:08:44;98521.13;;;20.94;68.48
35443;BME280;21561;55.654;37.592;2023-08-08T02:11:11;98519.44;;;20.93;69.08
35443;BME280;21561;55.654;37.592;2023-08-08T02:13:38;98525.13;;;20.87;69.06
35443;BME280;21561;55.654;37.592;2023-08-08T02:16:04;98514.25;;;20.78;69.27
35443;BME280;21561;55.654;37.592;2023-08-08T02:18:31;98517.28;;;20.72;69.31
35443;BME280;21561;55.654;37.592;2023-08-08T02:20:57;98520.25;;;20.68;69.13
35443;BME280;21561;55.654;37.592;2023-08-08T02:23:24;98514.34;;;20.64;69.10
35443;BME280;21561;55.654;37.592;2023-08-08T02:25:52;98528.44;;;20.63;69.08
35443;BME280;21561;55.654;37.592;2023-08-08T02:28:19;98516.25;;;20.62;69.55
35443;BME280;21561;55.654;37.592;2023-08-08T02:30:45;98507.38;;;20.63;69.31
35443;BME280;21561;55.654;37.592;2023-08-08T02:33:12;98505.56;;;20.64;70.24
35443;BME280;21561;55.654;37.592;2023-08-08T02:35:39;98510.09;;;20.62;69.79
35443;BME280;21561;55.654;37.592;2023-08-08T02:38:06;98503.06;;;20.62;70.41
35443;BME280;21561;55.654;37.592;2023-08-08T02:40:32;98519.81;;;20.61;70.37
35443;BME280;21561;55.654;37.592;2023-08-08T02:42:59;98523.19;;;20.63;70.07
35443;BME280;21561;55.654;37.592;2023-08-08T02:45:26;98503.78;;;20.64;70.32
35443;BME280;21561;55.654;37.592;2023-08-08T02:47:53;98507.16;;;20.66;70.36
35443;BME280;21561;55.654;37.592;2023-08-08T02:50:19;98505.28;;;20.68;70.51
35443;BME280;21561;55.654;37.592;2023-08-08T02:52:46;98506.97;;;20.69;70.51
35443;BME280;21561;55.654;37.592;2023-08-08T02:55:13;98509.59;;;20.69;71.01
35443;BME280;21561;55.654;37.592;2023-08-08T02:57:40;98509.59;;;20.69;70.62
35443;BME280;21561;55.654;37.592;2023-08-08T03:00:07;98512.03;;;20.72;70.47
35443;BME280;21561;55.654;37.592;2023-08-08T03:02:34;98513.63;;;20.75;70.26
35443;BME280;21561;55.654;37.592;2023-08-08T03:05:01;98508.25;;;20.76;70.62
35443;BME280;21561;55.654;37.592;2023-08-08T03:07:28;98509.94;;;20.77;70.76
35443;BME280;21561;55.654;37.592;2023-08-08T03:09:55;98512.91;;;20.86;71.23
35443;BME280;21561;55.654;37.592;2023-08-08T03:12:22;98514.56;;;20.87;71.04
35443;BME280;21561;55.654;37.592;2023-08-08T03:14:48;98529.34;;;20.89;70.67
35443;BME280;21561;55.654;37.592;2023-08-08T03:17:15;98526.63;;;20.91;71.84
35443;BME280;21561;55.654;37.592;2023-08-08T03:19:43;98524.91;;;20.90;71.11
35443;BME280;21561;55.654;37.592;2023-08-08T03:22:10;98532.81;;;20.90;70.99
35443;BME280;21561;55.654;37.592;2023-08-08T03:24:36;98535.28;;;20.93;70.40
35443;BME280;21561;55.654;37.592;2023-08-08T03:27:03;98531.47;;;20.97;70.54
35443;BME280;21561;55.654;37.592;2023-08-08T03:29:30;98525.78;;;21.03;70.55
35443;BME280;21561;55.654;37.592;2023-08-08T03:31:57;98532.53;;;21.07;70.49
35443;BME280;21561;55.654;37.592;2023-08-08T03:34:23;98525.38;;;21.09;70.46
35443;BME280;21561;55.654;37.592;2023-08-08T03:36:50;98528.53;;;21.14;70.59
35443;BME280;21561;55.654;37.592;2023-08-08T03:39:17;98535.28;;;21.19;70.44
35443;BME280;21561;55.654;37.592;2023-08-08T03:41:44;98532.53;;;21.20;70.41
35443;BME280;21561;55.654;37.592;2023-08-08T03:44:10;98529.16;;;21.18;70.29
35443;BME280;21561;55.654;37.592;2023-08-08T03:46:37;98527.56;;;21.15;70.46
35443;BME280;21561;55.654;37.592;2023-08-08T03:49:03;98533.81;;;21.14;71.08
35443;BME280;21561;55.654;37.592;2023-08-08T03:51:30;98532.09;;;21.13;70.86
35443;BME280;21561;55.654;37.592;2023-08-08T03:53:57;98544.56;;;21.11;70.54
35443;BME280;21561;55.654;37.592;2023-08-08T03:56:23;98546.47;;;21.09;70.64
35443;BME280;21561;55.654;37.592;2023-08-08T03:58:50;98549.19;;;21.08;70.43
35443;BME280;21561;55.654;37.592;2023-08-08T04:01:17;98550.25;;;21.05;71.01
35443;BME280;21561;55.654;37.592;2023-08-08T04:03:44;98556.25;;;20.94;71.01
35443;BME280;21561;55.654;37.592;2023-08-08T04:06:10;98561.69;;;20.66;71.38
35443;BME280;21561;55.654;37.592;2023-08-08T04:08:37;98547.53;;;20.39;72.19
35443;BME280;21561;55.654;37.592;2023-08-08T04:11:04;98545.34;;;20.19;72.12
35443;BME280;21561;55.654;37.592;2023-08-08T04:13:30;98547.63;;;20.11;72.00
35443;BME280;21561;55.654;37.592;2023-08-08T04:15:57;98551.19;;;20.10;72.25
35443;BME280;21561;55.654;37.592;2023-08-08T04:18:24;98545.72;;;20.13;72.49
35443;BME280;21561;55.654;37.592;2023-08-08T04:20:50;98547.44;;;20.14;72.94
35443;BME280;21561;55.654;37.592;2023-08-08T04:23:17;98554.28;;;20.16;72.04
35443;BME280;21561;55.654;37.592;2023-08-08T04:25:44;98555.91;;;20.19;72.29
35443;BME280;21561;55.654;37.592;2023-08-08T04:28:11;98554.00;;;20.21;72.39
35443;BME280;21561;55.654;37.592;2023-08-08T04:30:37;98551.38;;;20.21;72.12
35443;BME280;21561;55.654;37.592;2023-08-08T04:33:04;98553.03;;;20.22;72.28
35443;BME280;21561;55.654;37.592;2023-08-08T04:35:31;98549.56;;;20.21;73.23
35443;BME280;21561;55.654;37.592;2023-08-08T04:37:57;98548.91;;;20.18;72.67
35443;BME280;21561;55.654;37.592;2023-08-08T04:40:24;98548.19;;;20.16;72.88
35443;BME280;21561;55.654;37.592;2023-08-08T04:42:51;98556.25;;;20.13;74.40
35443;BME280;21561;55.654;37.592;2023-08-08T04:45:18;98553.06;;;20.08;73.51
35443;BME280;21561;55.654;37.592;2023-08-08T04:47:45;98557.69;;;20.04;73.18
35443;BME280;21561;55.654;37.592;2023-08-08T04:50:12;98559.59;;;20.02;73.80
35443;BME280;21561;55.654;37.592;2023-08-08T04:52:38;98550.28;;;19.96;75.04
35443;BME280;21561;55.654;37.592;2023-08-08T04:55:05;98551.34;;;19.94;74.25
35443;BME280;21561;55.654;37.592;2023-08-08T04:57:32;98564.38;;;19.95;73.73
35443;BME280;21561;55.654;37.592;2023-08-08T04:59:59;98560.63;;;19.99;74.25
35443;BME280;21561;55.654;37.592;2023-08-08T05:02:32;98551.41;;;20.07;73.44
35443;BME280;21561;55.654;37.592;2023-08-08T05:04:58;98550.81;;;20.16;74.01
35443;BME280;21561;55.654;37.592;2023-08-08T05:07:27;98555.66;;;20.22;74.12
35443;BME280;21561;55.654;37.592;2023-08-08T05:09:53;98560.75;;;20.25;75.12
35443;BME280;21561;55.654;37.592;2023-08-08T05:12:20;98564.53;;;20.21;77.15
35443;BME280;21561;55.654;37.592;2023-08-08T05:14:47;98573.47;;;20.18;75.63
35443;BME280;21561;55.654;37.592;2023-08-08T05:17:13;98569.25;;;20.16;76.67
35443;BME280;21561;55.654;37.592;2023-08-08T05:19:40;98558.81;;;20.14;76.97
35443;BME280;21561;55.654;37.592;2023-08-08T05:22:06;98567.53;;;20.15;78.22
35443;BME280;21561;55.654;37.592;2023-08-08T05:24:34;98571.69;;;20.19;76.84
35443;BME280;21561;55.654;37.592;2023-08-08T05:27:02;98564.31;;;20.24;75.26
35443;BME280;21561;55.654;37.592;2023-08-08T05:29:30;98558.66;;;20.30;75.34
35443;BME280;21561;55.654;37.592;2023-08-08T05:31:56;98571.34;;;20.38;75.60
35443;BME280;21561;55.654;37.592;2023-08-08T05:34:24;98563.81;;;20.46;75.75
35443;BME280;21561;55.654;37.592;2023-08-08T05:36:51;98563.28;;;20.54;76.15
35443;BME280;21561;55.654;37.592;2023-08-08T05:39:35;98572.50;;;20.61;75.79
35443;BME280;21561;55.654;37.592;2023-08-08T05:42:02;98570.63;;;20.63;76.20
35443;BME280;21561;55.654;37.592;2023-08-08T05:44:29;98570.44;;;20.66;78.29
35443;BME280;21561;55.654;37.592;2023-08-08T05:46:56;98573.81;;;20.68;76.27
35443;BME280;21561;55.654;37.592;2023-08-08T05:49:22;98566.44;;;20.73;77.79
35443;BME280;21561;55.654;37.592;2023-08-08T05:51:49;98569.41;;;20.82;76.10
35443;BME280;21561;55.654;37.592;2023-08-08T05:54:16;98574.09;;;20.91;76.77
35443;BME280;21561;55.654;37.592;2023-08-08T05:56:42;98572.59;;;21.00;75.59
35443;BME280;21561;55.654;37.592;2023-08-08T05:59:09;98571.03;;;21.10;75.83
35443;BME280;21561;55.654;37.592;2023-08-08T06:01:36;98572.00;;;21.22;75.71
35443;BME280;21561;55.654;37.592;2023-08-08T06:04:03;98568.00;;;21.29;76.04
35443;BME280;21561;55.654;37.592;2023-08-08T06:06:30;98574.56;;;21.36;75.14
35443;BME280;21561;55.654;37.592;2023-08-08T06:08:57;98571.19;;;21.47;75.07
35443;BME280;21561;55.654;37.592;2023-08-08T06:11:23;98586.19;;;21.59;75.00
35443;BME280;21561;55.654;37.592;2023-08-08T06:13:50;98576.78;;;21.68;74.94
35443;BME280;21561;55.654;37.592;2023-08-08T06:16:17;98570.25;;;21.73;74.97
35443;BME280;21561;55.654;37.592;2023-08-08T06:18:45;98568.31;;;21.76;75.02
35443;BME280;21561;55.654;37.592;2023-08-08T06:21:11;98567.50;;;21.75;74.78
35443;BME280;21561;55.654;37.592;2023-08-08T06:23:38;98566.53;;;21.76;74.71
35443;BME280;21561;55.654;37.592;2023-08-08T06:26:05;98565.88;;;21.85;74.69
35443;BME280;21561;55.654;37.592;2023-08-08T06:28:32;98574.53;;;21.87;74.25
35443;BME280;21561;55.654;37.592;2023-08-08T06:30:58;98576.84;;;21.92;74.40
35443;BME280;21561;55.654;37.592;2023-08-08T06:33:25;98574.84;;;21.96;74.59
35443;BME280;21561;55.654;37.592;2023-08-08T06:35:52;98567.13;;;21.92;74.26
35443;BME280;21561;55.654;37.592;2023-08-08T06:38:22;98569.34;;;21.99;73.93
35443;BME280;21561;55.654;37.592;2023-08-08T06:40:49;98571.13;;;22.11;73.69
35443;BME280;21561;55.654;37.592;2023-08-08T06:43:16;98575.31;;;22.26;73.74
35443;BME280;21561;55.654;37.592;2023-08-08T06:45:42;98571.78;;;22.39;73.74
35443;BME280;21561;55.654;37.592;2023-08-08T06:48:10;98574.47;;;22.50;73.30
35443;BME280;21561;55.654;37.592;2023-08-08T06:50:37;98571.66;;;22.64;73.07
35443;BME280;21561;55.654;37.592;2023-08-08T06:53:03;98574.88;;;22.81;72.84
35443;BME280;21561;55.654;37.592;2023-08-08T06:55:31;98572.94;;;22.83;72.62
35443;BME280;21561;55.654;37.592;2023-08-08T06:57:58;98579.69;;;22.87;72.75
35443;BME280;21561;55.654;37.592;2023-08-08T07:00:24;98585.25;;;22.95;72.67
35443;BME280;21561;55.654;37.592;2023-08-08T07:02:53;98589.13;;;23.02;72.58
35443;BME280;21561;55.654;37.592;2023-08-08T07:05:20;98588.69;;;23.09;72.54
35443;BME280;21561;55.654;37.592;2023-08-08T07:07:51;98589.78;;;23.17;72.39
35443;BME280;21561;55.654;37.592;2023-08-08T07:10:19;98597.84;;;23.27;72.31
35443;BME280;21561;55.654;37.592;2023-08-08T07:12:45;98597.84;;;23.27;71.49
35443;BME280;21561;55.654;37.592;2023-08-08T07:15:12;98592.31;;;23.19;71.29
35443;BME280;21561;55.654;37.592;2023-08-08T07:17:39;98603.13;;;23.16;71.61
35443;BME280;21561;55.654;37.592;2023-08-08T07:20:06;98599.03;;;23.12;71.86
35443;BME280;21561;55.654;37.592;2023-08-08T07:22:34;98586.66;;;23.12;71.80
35443;BME280;21561;55.654;37.592;2023-08-08T07:25:01;98600.50;;;23.16;71.81
35443;BME280;21561;55.654;37.592;2023-08-08T07:27:28;98592.69;;;23.25;71.74
35443;BME280;21561;55.654;37.592;2023-08-08T07:29:55;98589.47;;;23.33;71.39
35443;BME280;21561;55.654;37.592;2023-08-08T07:32:21;98595.72;;;23.43;71.39
35443;BME280;21561;55.654;37.592;2023-08-08T07:34:48;98597.69;;;23.53;71.28
35443;BME280;21561;55.654;37.592;2023-08-08T07:37:15;98597.91;;;23.61;71.23
35443;BME280;21561;55.654;37.592;2023-08-08T07:39:42;98600.31;;;23.64;71.35
35443;BME280;21561;55.654;37.592;2023-08-08T07:42:09;98604.41;;;23.68;70.89
35443;BME280;21561;55.654;37.592;2023-08-08T07:44:36;98610.19;;;23.73;70.93
35443;BME280;21561;55.654;37.592;2023-08-08T07:47:04;98613.34;;;23.78;70.88
35443;BME280;21561;55.654;37.592;2023-08-08T07:49:31;98616.75;;;23.80;70.60
35443;BME280;21561;55.654;37.592;2023-08-08T07:51:58;98610.94;;;23.87;70.52
35443;BME280;21561;55.654;37.592;2023-08-08T07:54:25;98614.09;;;23.92;70.29
35443;BME280;21561;55.654;37.592;2023-08-08T07:56:52;98629.75;;;23.95;70.37
35443;BME280;21561;55.654;37.592;2023-08-08T07:59:18;98611.44;;;23.92;69.68
35443;BME280;21561;55.654;37.592;2023-08-08T08:01:45;98612.88;;;23.85;69.44
35443;BME280;21561;55.654;37.592;2023-08-08T08:04:13;98609.28;;;23.86;70.04
35443;BME280;21561;55.654;37.592;2023-08-08T08:06:40;98610.72;;;23.90;69.70
35443;BME280;21561;55.654;37.592;2023-08-08T08:09:09;98609.25;;;23.97;69.39
35443;BME280;21561;55.654;37.592;2023-08-08T08:11:36;98611.06;;;24.08;69.34
35443;BME280;21561;55.654;37.592;2023-08-08T08:14:03;98617.44;;;24.16;69.27
35443;BME280;21561;55.654;37.592;2023-08-08T08:16:29;98616.81;;;24.24;69.26
35443;BME280;21561;55.654;37.592;2023-08-08T08:18:56;98621.78;;;24.29;69.11
35443;BME280;21561;55.654;37.592;2023-08-08T08:21:24;98629.34;;;24.33;69.06
35443;BME280;21561;55.654;37.592;2023-08-08T08:23:51;98622.56;;;24.40;69.08
35443;BME280;21561;55.654;37.592;2023-08-08T08:26:17;98621.69;;;24.51;68.85
35443;BME280;21561;55.654;37.592;2023-08-08T08:28:44;98621.00;;;24.61;68.74
35443;BME280;21561;55.654;37.592;2023-08-08T08:31:11;98625.16;;;24.74;68.51
35443;BME280;21561;55.654;37.592;2023-08-08T08:33:38;98626.22;;;24.83;68.25
35443;BME280;21561;55.654;37.592;2023-08-08T08:36:04;98620.31;;;24.91;68.04
35443;BME280;21561;55.654;37.592;2023-08-08T08:38:31;98624.44;;;25.05;67.95
35443;BME280;21561;55.654;37.592;2023-08-08T08:40:58;98630.44;;;25.18;67.71
35443;BME280;21561;55.654;37.592;2023-08-08T08:43:25;98636.03;;;25.36;67.52
35443;BME280;21561;55.654;37.592;2023-08-08T08:45:52;98635.75;;;25.60;67.24
35443;BME280;21561;55.654;37.592;2023-08-08T08:48:20;98639.47;;;25.79;66.52
35443;BME280;21561;55.654;37.592;2023-08-08T08:50:48;98637.00;;;25.87;65.15
35443;BME280;21561;55.654;37.592;2023-08-08T08:53:15;98632.94;;;25.83;63.71
35443;BME280;21561;55.654;37.592;2023-08-08T08:55:42;98640.34;;;25.79;65.71
35443;BME280;21561;55.654;37.592;2023-08-08T08:58:09;98640.97;;;25.71;64.82
35443;BME280;21561;55.654;37.592;2023-08-08T09:00:37;98636.06;;;25.67;65.57
35443;BME280;21561;55.654;37.592;2023-08-08T09:03:04;98634.56;;;25.74;66.08
35443;BME280;21561;55.654;37.592;2023-08-08T09:05:31;98633.38;;;25.88;65.11
35443;BME280;21561;55.654;37.592;2023-08-08T09:07:58;98627.41;;;25.65;63.33
35443;BME280;21561;55.654;37.592;2023-08-08T09:10:25;98648.97;;;25.29;64.58
35443;BME280;21561;55.654;37.592;2023-08-08T09:12:52;98643.00;;;25.16;64.69
35443;BME280;21561;55.654;37.592;2023-08-08T09:15:19;98641.13;;;25.28;65.64
35443;BME280;21561;55.654;37.592;2023-08-08T09:17:46;98639.34;;;25.17;64.49
35443;BME280;21561;55.654;37.592;2023-08-08T09:20:15;98637.16;;;25.22;65.25
35443;BME280;21561;55.654;37.592;2023-08-08T09:22:43;98634.03;;;25.17;64.44
35443;BME280;21561;55.654;37.592;2023-08-08T09:25:10;98639.59;;;25.14;64.34
35443;BME280;21561;55.654;37.592;2023-08-08T09:27:37;98644.25;;;25.01;65.19
35443;BME280;21561;55.654;37.592;2023-08-08T09:30:03;98643.00;;;25.16;64.62
35443;BME280;21561;55.654;37.592;2023-08-08T09:32:32;98647.06;;;25.20;64.59
35443;BME280;21561;55.654;37.592;2023-08-08T09:34:59;98644.50;;;25.30;65.04
35443;BME280;21561;55.654;37.592;2023-08-08T09:37:27;98645.41;;;25.40;64.94
35443;BME280;21561;55.654;37.592;2023-08-08T09:40:02;98639.66;;;25.56;65.64
35443;BME280;21561;55.654;37.592;2023-08-08T09:42:31;98642.59;;;25.84;63.98
35443;BME280;21561;55.654;37.592;2023-08-08T09:44:58;98645.06;;;25.76;63.49
35443;BME280;21561;55.654;37.592;2023-08-08T09:47:25;98643.22;;;25.66;64.23
35443;BME280;21561;55.654;37.592;2023-08-08T09:50:00;98647.78;;;25.64;63.76
35443;BME280;21561;55.654;37.592;2023-08-08T09:52:29;98652.47;;;25.51;64.88
35443;BME280;21561;55.654;37.592;2023-08-08T09:54:56;98663.72;;;25.64;65.52
35443;BME280;21561;55.654;37.592;2023-08-08T09:57:23;98659.84;;;25.68;64.36
35443;BME280;21561;55.654;37.592;2023-08-08T09:59:51;98660.56;;;25.70;64.36
35443;BME280;21561;55.654;37.592;2023-08-08T10:02:18;98655.13;;;25.72;63.35
35443;BME280;21561;55.654;37.592;2023-08-08T10:04:45;98654.44;;;25.49;63.93
35443;BME280;21561;55.654;37.592;2023-08-08T10:07:12;98650.97;;;25.58;63.68
35443;BME280;21561;55.654;37.592;2023-08-08T10:09:39;98652.53;;;25.61;63.42
35443;BME280;21561;55.654;37.592;2023-08-08T10:12:06;98652.94;;;25.87;63.80
35443;BME280;21561;55.654;37.592;2023-08-08T10:14:37;98648.91;;;26.14;63.24
35443;BME280;21561;55.654;37.592;2023-08-08T10:17:07;98650.94;;;26.41;62.27
35443;BME280;21561;55.654;37.592;2023-08-08T10:19:34;98655.63;;;26.58;62.45
35443;BME280;21561;55.654;37.592;2023-08-08T10:22:03;98650.75;;;26.73;61.28
35443;BME280;21561;55.654;37.592;2023-08-08T10:24:34;98653.00;;;26.88;61.62
35443;BME280;21561;55.654;37.592;2023-08-08T10:27:01;98649.94;;;27.02;60.58
35443;BME280;21561;55.654;37.592;2023-08-08T10:29:29;98642.94;;;27.01;59.85
35443;BME280;21561;55.654;37.592;2023-08-08T10:32:00;98662.69;;;26.89;60.26
35443;BME280;21561;55.654;37.592;2023-08-08T10:34:44;98656.09;;;26.73;60.78
35443;BME280;21561;55.654;37.592;2023-08-08T10:37:12;98662.19;;;26.54;61.93
35443;BME280;21561;55.654;37.592;2023-08-08T10:39:50;98664.94;;;26.33;61.93
35443;BME280;21561;55.654;37.592;2023-08-08T10:42:18;98670.78;;;26.27;61.62
35443;BME280;21561;55.654;37.592;2023-08-08T10:44:52;98674.09;;;26.09;61.71
35443;BME280;21561;55.654;37.592;2023-08-08T10:47:23;98676.75;;;25.88;62.71
35443;BME280;21561;55.654;37.592;2023-08-08T10:49:59;98676.41;;;25.82;63.57
35443;BME280;21561;55.654;37.592;2023-08-08T10:52:29;98686.69;;;25.65;63.04
35443;BME280;21561;55.654;37.592;2023-08-08T10:54:56;98687.72;;;25.53;63.84
35443;BME280;21561;55.654;37.592;2023-08-08T10:57:24;98687.38;;;25.46;64.62
35443;BME280;21561;55.654;37.592;2023-08-08T10:59:51;98688.50;;;25.44;64.66
35443;BME280;21561;55.654;37.592;2023-08-08T11:02:19;98684.19;;;25.31;65.64
35443;BME280;21561;55.654;37.592;2023-08-08T11:04:46;98688.81;;;25.29;65.75
35443;BME280;21561;55.654;37.592;2023-08-08T11:07:14;98694.13;;;25.18;66.50
35443;BME280;21561;55.654;37.592;2023-08-08T11:09:41;98697.03;;;25.15;67.00
35443;BME280;21561;55.654;37.592;2023-08-08T11:12:14;98693.88;;;25.21;67.31
35443;BME280;21561;55.654;37.592;2023-08-08T11:14:41;98687.38;;;25.14;67.03
35443;BME280;21561;55.654;37.592;2023-08-08T11:17:08;98691.03;;;25.13;67.20
35443;BME280;21561;55.654;37.592;2023-08-08T11:19:40;98694.91;;;25.09;66.78
35443;BME280;21561;55.654;37.592;2023-08-08T11:22:10;98692.25;;;24.98;66.81
35443;BME280;21561;55.654;37.592;2023-08-08T11:24:38;98696.16;;;24.93;67.35
35443;BME280;21561;55.654;37.592;2023-08-08T11:27:04;98701.22;;;24.96;67.81
35443;BME280;21561;55.654;37.592;2023-08-08T11:29:31;98702.63;;;25.01;67.07
35443;BME280;21561;55.654;37.592;2023-08-08T11:32:01;98696.66;;;24.87;67.55
35443;BME280;21561;55.654;37.592;2023-08-08T11:34:32;98705.34;;;24.89;67.65
35443;BME280;21561;55.654;37.592;2023-08-08T11:37:00;98707.34;;;24.97;67.28
35443;BME280;21561;55.654;37.592;2023-08-08T11:39:27;98711.56;;;25.00;67.73
35443;BME280;21561;55.654;37.592;2023-08-08T11:41:55;98707.22;;;24.99;67.33
35443;BME280;21561;55.654;37.592;2023-08-08T11:44:25;98708.19;;;24.98;67.60
35443;BME280;21561;55.654;37.592;2023-08-08T11:46:52;98709.38;;;25.05;66.89
35443;BME280;21561;55.654;37.592;2023-08-08T11:49:18;98705.53;;;25.09;66.97
35443;BME280;21561;55.654;37.592;2023-08-08T11:51:45;98705.34;;;25.22;66.53
35443;BME280;21561;55.654;37.592;2023-08-08T11:54:12;98709.03;;;25.42;66.21
35443;BME280;21561;55.654;37.592;2023-08-08T11:56:39;98701.38;;;25.69;64.93
35443;BME280;21561;55.654;37.592;2023-08-08T11:59:06;98694.72;;;25.96;64.13
35443;BME280;21561;55.654;37.592;2023-08-08T12:01:33;98696.03;;;26.42;63.78
35443;BME280;21561;55.654;37.592;2023-08-08T12:04:07;98692.00;;;27.57;59.47
35443;BME280;21561;55.654;37.592;2023-08-08T12:06:36;98695.47;;;28.80;55.09
35443;BME280;21561;55.654;37.592;2023-08-08T12:09:05;98691.91;;;29.43;52.25
35443;BME280;21561;55.654;37.592;2023-08-08T12:11:36;98684.16;;;30.02;50.50
35443;BME280;21561;55.654;37.592;2023-08-08T12:14:07;98680.69;;;30.36;48.60
35443;BME280;21561;55.654;37.592;2023-08-08T12:16:34;98690.28;;;30.55;48.58
35443;BME280;21561;55.654;37.592;2023-08-08T12:19:02;98685.91;;;31.29;47.05
35443;BME280;21561;55.654;37.592;2023-08-08T12:21:28;98673.66;;;31.84;44.70
35443;BME280;21561;55.654;37.592;2023-08-08T12:23:55;98664.00;;;32.31;44.05
35443;BME280;21561;55.654;37.592;2023-08-08T12:26:22;98659.16;;;32.58;42.93
35443;BME280;21561;55.654;37.592;2023-08-08T12:28:49;98659.09;;;32.74;42.21
35443;BME280;21561;55.654;37.592;2023-08-08T12:31:17;98679.69;;;33.13;42.19
35443;BME280;21561;55.654;37.592;2023-08-08T12:33:44;98658.06;;;33.44;41.57
35443;BME280;21561;55.654;37.592;2023-08-08T12:36:12;98677.22;;;32.72;41.63
35443;BME280;21561;55.654;37.592;2023-08-08T12:38:39;98736.50;;;32.06;43.16
35443;BME280;21561;55.654;37.592;2023-08-08T12:41:06;98738.69;;;31.45;44.19
35443;BME280;21561;55.654;37.592;2023-08-08T12:43:33;98721.06;;;31.26;45.19
35443;BME280;21561;55.654;37.592;2023-08-08T12:46:01;98692.81;;;31.73;43.91
35443;BME280;21561;55.654;37.592;2023-08-08T12:48:28;98666.09;;;32.12;43.42
35443;BME280;21561;55.654;37.592;2023-08-08T12:50:54;98672.63;;;32.49;42.91